Terminal Aerodrome Forecast
Issued by NWS Twin Cities, MN

Home | Current Version | Previous Version | Text Only | Print | Product List | Glossary Off
Versions: 1 2 3 4 5 6 7 8 9 10 11 12 13 14 15 16 17 18 19 20 21 22

682
FTUS43 KMPX 191212 CCA
TAFSTC
TAF COR
KSTC 191212Z 1912/2012 01011G20KT 2SM -SN OVC025
     FM191800 03014G22KT 2SM -SN BKN025
     FM200000 04013G20KT 6SM BR VCSH OVC020
     FM200300 04010KT P6SM OVC020
     FM200700 04009KT 3SM -SN OVC015
     FM200900 03008KT 1SM -SN OVC010=

USA.gov is the U.S. government's official web portal to all federal, state and local government web resources and services.